Time;durP1;ratioP1;P1;durP2;ratioP2;P2;SDS_P1;SDS_P2;PMS_P1;PMS_P2;Temp;Humidity;BMP_temperature;BMP_pressure;BME280_temperature;BME280_humidity;BME280_pressure;Samples;Min_cycle;Max_cycle;Signal;HPM_P1;HPM_P2
2022/05/08 00:03:44;;;;;;;284.15;254.18;;;;;;;16.90;64.64;101863.63;15759637;28;20051;-62
2022/05/08 00:11:16;;;;;;;1580.55;822.38;;;;;;;16.81;64.87;101858.06;15777738;28;20123;-63
2022/05/08 00:18:50;;;;;;;246.35;220.85;;;;;;;16.54;65.33;101856.66;15762607;28;20136;-61
2022/05/08 00:26:22;;;;;;;1571.03;813.28;;;;;;;16.54;65.12;101851.00;15777589;28;20074;-62
2022/05/08 00:33:56;;;;;;;1520.47;767.78;;;;;;;16.68;64.40;101845.94;15765818;28;20043;-62
2022/05/08 00:41:28;;;;;;;1558.40;802.00;;;;;;;16.56;64.98;101850.66;15766582;28;20446;-61
2022/05/08 00:49:02;;;;;;;1999.90;999.90;;;;;;;16.95;63.39;101852.09;15782458;28;20151;-59
2022/05/08 00:56:38;;;;;;;1999.90;999.90;;;;;;;16.83;63.98;101854.91;15760583;28;20166;-61
2022/05/08 01:04:12;;;;;;;1999.90;999.90;;;;;;;16.76;63.64;101849.00;15760322;28;20159;-62
2022/05/08 01:11:45;;;;;;;1999.90;999.90;;;;;;;16.62;64.08;101846.47;15795413;28;20384;-62
2022/05/08 01:19:25;;;;;;;1999.90;999.90;;;;;;;16.40;64.50;101842.03;15774796;28;20098;-60
2022/05/08 01:27:03;;;;;;;1999.90;999.90;;;;;;;16.14;64.25;101847.88;15743588;28;20041;-63
2022/05/08 01:34:36;;;;;;;1999.90;999.90;;;;;;;16.41;62.58;101844.50;15773332;28;20139;-60
2022/05/08 01:42:10;;;;;;;1999.90;999.90;;;;;;;16.28;61.87;101856.06;15737318;28;20424;-62
2022/05/08 01:49:43;;;;;;;1999.90;999.90;;;;;;;16.27;61.01;101849.63;15767209;28;20538;-61
2022/05/08 01:57:17;;;;;;;1999.90;999.90;;;;;;;16.23;60.12;101859.06;15744169;28;20172;-60
2022/05/08 02:04:50;;;;;;;1999.90;999.90;;;;;;;15.99;60.56;101862.59;15744378;28;20126;-62
2022/05/08 02:12:23;;;;;;;1999.90;999.90;;;;;;;15.95;60.69;101867.25;15755723;28;20070;-63
2022/05/08 02:19:56;;;;;;;1999.90;999.90;;;;;;;15.80;60.98;101871.47;15760425;28;20105;-63
2022/05/08 02:27:36;;;;;;;1999.90;999.90;;;;;;;15.86;61.41;101872.94;15772004;28;20169;-61
2022/05/08 02:35:10;;;;;;;1999.90;999.90;;;;;;;15.71;61.98;101881.97;15752653;28;20044;-62
2022/05/08 02:42:44;;;;;;;1999.90;999.90;;;;;;;15.93;60.91;101880.84;15795664;28;20037;-62
2022/05/08 02:50:17;;;;;;;1999.90;999.90;;;;;;;16.16;60.88;101888.63;15768761;28;20171;-62
2022/05/08 03:05:45;;;;;;;1999.90;999.90;;;;;;;16.16;61.16;101885.81;15777246;28;20049;-63
2022/05/08 03:13:20;;;;;;;1999.90;999.90;;;;;;;16.22;61.00;101896.84;15763895;28;20369;-62
2022/05/08 03:20:52;;;;;;;1999.90;999.90;;;;;;;16.36;60.67;101900.22;15784884;28;20041;-62
2022/05/08 03:28:26;;;;;;;1999.90;999.90;;;;;;;16.19;61.14;101906.00;15762719;28;20096;-62
2022/05/08 03:35:59;;;;;;;1999.90;999.90;;;;;;;16.19;61.04;101914.44;15769981;28;20098;-64
2022/05/08 03:43:34;;;;;;;1999.90;999.90;;;;;;;15.98;61.46;101925.69;15778362;28;20044;-63
2022/05/08 03:51:08;;;;;;;1999.90;999.90;;;;;;;15.96;61.78;101922.41;15793237;28;20048;-62
2022/05/08 03:58:44;;;;;;;1999.90;999.90;;;;;;;15.96;62.06;101930.84;15782208;28;20047;-64
2022/05/08 04:06:16;;;;;;;1999.90;999.90;;;;;;;16.09;62.48;101936.22;15757260;28;20055;-63
2022/05/08 04:13:50;;;;;;;1999.90;999.90;;;;;;;15.90;62.78;101941.47;15798966;28;20101;-60
2022/05/08 04:21:22;;;;;;;1999.90;999.90;;;;;;;15.63;63.93;101948.41;15757524;28;20044;-63
2022/05/08 04:28:56;;;;;;;1999.90;999.90;;;;;;;15.82;63.89;101951.59;15758941;28;20083;-64
2022/05/08 04:36:29;;;;;;;;;;;;;;;15.90;64.57;101955.53;15793515;28;20131;-64
2022/05/08 04:44:02;;;;;;;323.67;297.10;;;;;;;15.79;67.73;101966.34;15786894;28;19926;-64
2022/05/08 04:51:35;;;;;;;305.58;282.63;;;;;;;15.91;68.95;101981.69;15776381;28;20041;-62
2022/05/08 04:59:08;;;;;;;270.05;248.55;;;;;;;16.08;68.71;101985.25;15775435;28;20051;-63
2022/05/08 05:06:43;;;;;;;287.95;214.98;;;;;;;15.81;65.35;101997.78;15780587;28;20102;-64
2022/05/08 05:14:16;;;;;;;1999.90;999.90;;;;;;;15.58;64.93;101991.56;15799345;23;20131;-59
2022/05/08 05:21:49;;;;;;;1999.90;999.90;;;;;;;15.43;63.88;102002.56;15791370;28;20443;-61
2022/05/08 05:29:23;;;;;;;1999.90;999.90;;;;;;;15.71;62.90;102017.03;15726842;28;20040;-61
2022/05/08 05:36:55;;;;;;;1999.90;999.90;;;;;;;15.70;61.78;102012.56;15723882;28;20068;-60
2022/05/08 05:44:29;;;;;;;1999.90;999.90;;;;;;;15.62;62.08;102019.88;15706056;28;20069;-61
2022/05/08 05:52:05;;;;;;;1999.90;999.90;;;;;;;15.94;59.89;102038.13;15724103;28;20040;-61
2022/05/08 05:59:39;;;;;;;1999.90;999.90;;;;;;;16.28;59.46;102047.59;15742051;28;20122;-61
2022/05/08 06:07:11;;;;;;;1999.90;999.90;;;;;;;16.71;58.60;102045.34;15740427;28;20056;-61
2022/05/08 06:14:46;;;;;;;1999.90;999.90;;;;;;;16.78;60.80;102049.59;15740577;28;20115;-61
2022/05/08 06:22:18;;;;;;;1999.90;999.90;;;;;;;16.82;59.08;102045.75;15740164;28;20055;-60
2022/05/08 06:29:52;;;;;;;1999.90;999.90;;;;;;;17.76;57.04;102048.84;15739545;28;20094;-62
2022/05/08 06:37:24;;;;;;;1999.90;999.90;;;;;;;18.11;55.92;102054.88;15738881;28;20123;-60
2022/05/08 06:44:59;;;;;;;1999.90;999.90;;;;;;;18.43;53.66;102057.94;15739079;28;20699;-60
2022/05/08 06:52:31;;;;;;;1999.90;999.90;;;;;;;18.48;52.30;102057.72;15738060;28;20074;-60
2022/05/08 07:07:57;;;;;;;1999.90;999.90;;;;;;;20.22;48.70;102066.78;15736675;28;20048;-61
2022/05/08 07:15:31;;;;;;;1999.90;999.90;;;;;;;21.20;43.93;102067.47;15722449;28;20048;-60
2022/05/08 07:23:03;;;;;;;1999.90;999.90;;;;;;;23.07;41.50;102072.38;15710409;28;20068;-61
2022/05/08 07:30:37;;;;;;;1999.90;999.90;;;;;;;23.19;39.58;102083.53;15692804;28;20493;-61
2022/05/08 07:38:09;;;;;;;1999.90;999.90;;;;;;;23.38;41.38;102083.38;15737707;28;20071;-60
2022/05/08 07:45:44;;;;;;;1999.90;999.90;;;;;;;23.85;38.96;102087.56;15749342;28;20049;-60
2022/05/08 07:53:16;;;;;;;1999.90;999.90;;;;;;;23.29;40.81;102082.84;15747074;28;20558;-60
2022/05/08 08:00:53;;;;;;;1999.90;999.90;;;;;;;25.81;35.68;102086.00;15746651;28;20036;-58
2022/05/08 08:08:26;;;;;;;1999.90;999.90;;;;;;;25.53;36.93;102093.28;15745418;28;20051;-60
2022/05/08 08:16:01;;;;;;;1999.90;999.90;;;;;;;24.83;38.13;102097.41;15745499;28;20306;-59
2022/05/08 08:23:33;;;;;;;1999.90;999.90;;;;;;;25.33;36.80;102101.38;15744779;28;20049;-59
2022/05/08 08:31:07;;;;;;;1999.90;999.90;;;;;;;25.89;36.94;102108.50;15714542;28;20124;-60
2022/05/08 08:38:40;;;;;;;1999.90;999.90;;;;;;;24.31;38.36;102115.75;15688149;28;20106;-59
2022/05/08 08:54:04;;;;;;;1999.90;999.90;;;;;;;26.30;34.20;102121.63;15683495;28;20099;-61
2022/05/08 09:01:41;;;;;;;1999.90;999.90;;;;;;;26.28;34.57;102126.94;15682741;28;20045;-60
2022/05/08 09:09:25;;;;;;;1999.90;999.90;;;;;;;26.20;35.87;102126.13;15683412;28;20053;-59
2022/05/08 09:16:59;;;;;;;1999.90;999.90;;;;;;;27.73;33.22;102136.53;15681292;28;20566;-60
2022/05/08 09:24:32;;;;;;;1999.90;999.90;;;;;;;26.58;34.02;102138.84;15687108;28;20044;-60
2022/05/08 09:32:07;;;;;;;1999.90;999.90;;;;;;;25.08;36.62;102134.69;15731966;28;20124;-62
2022/05/08 09:39:40;;;;;;;1999.90;999.90;;;;;;;25.75;36.14;102134.22;15712995;28;20041;-62
2022/05/08 09:47:40;;;;;;;1999.90;999.90;;;;;;;25.41;34.93;102129.94;15700712;28;20136;-61
2022/05/08 09:55:14;;;;;;;1999.90;999.90;;;;;;;26.68;34.41;102131.47;15729290;28;20075;-62
2022/05/08 10:02:50;;;;;;;1999.90;999.90;;;;;;;26.64;32.87;102127.78;15716562;28;20090;-63
2022/05/08 10:18:28;;;;;;;1999.90;999.90;;;;;;;28.32;28.63;102136.56;15703704;28;20045;-63
2022/05/08 10:26:24;;;;;;;1999.90;999.90;;;;;;;29.07;28.76;102135.88;15718252;28;20044;-63
2022/05/08 10:34:07;;;;;;;1999.90;999.90;;;;;;;28.99;28.27;102138.84;15713297;28;20449;-61
2022/05/08 10:41:46;;;;;;;1999.90;999.90;;;;;;;28.81;29.23;102134.47;15704928;28;20056;-62
2022/05/08 10:49:19;;;;;;;1999.90;999.90;;;;;;;27.73;28.39;102122.19;15705607;28;20033;-63
2022/05/08 10:56:52;;;;;;;1999.90;999.90;;;;;;;29.49;26.66;102120.19;15713323;28;20119;-63
2022/05/08 11:04:25;;;;;;;1999.90;999.90;;;;;;;27.26;25.93;102118.66;15720943;28;20055;-62
2022/05/08 11:12:05;;;;;;;1999.90;999.90;;;;;;;29.01;26.25;102126.91;15722712;28;20044;-62
2022/05/08 11:19:52;;;;;;;1999.90;999.90;;;;;;;29.62;25.41;102121.28;15729646;28;20408;-64
2022/05/08 11:27:24;;;;;;;1999.90;999.90;;;;;;;29.71;25.61;102124.44;15714643;28;20055;-64
2022/05/08 11:42:58;;;;;;;;;;;;;;;29.93;25.00;102129.88;15733169;28;20041;-61
2022/05/08 11:50:32;;;;;;;1999.90;999.90;;;;;;;28.80;24.21;102121.38;15732234;28;19947;-60
2022/05/08 11:58:05;;;;;;;1999.90;999.90;;;;;;;29.43;24.37;102114.09;15708361;28;20060;-61
2022/05/08 12:05:38;;;;;;;1999.90;999.90;;;;;;;29.76;24.68;102118.19;15719801;28;20037;-60
2022/05/08 12:13:11;;;;;;;1999.90;999.90;;;;;;;31.25;23.42;102109.06;15719534;28;20068;-62
2022/05/08 12:20:45;;;;;;;1999.90;999.90;;;;;;;31.20;24.70;102117.44;15696143;28;20079;-62
2022/05/08 12:28:17;;;;;;;1999.90;999.90;;;;;;;31.62;22.79;102124.34;15705591;28;20052;-61
2022/05/08 12:35:51;;;;;;;1999.90;999.90;;;;;;;32.59;21.35;102125.78;15722811;28;20066;-62
2022/05/08 12:43:23;;;;;;;1999.90;999.90;;;;;;;33.60;19.95;102128.34;15708255;28;20044;-62
2022/05/08 12:50:58;;;;;;;1999.90;999.90;;;;;;;33.23;19.21;102121.13;15716567;28;20036;-61
2022/05/08 13:06:22;;;;;;;1999.90;999.90;;;;;;;36.25;15.47;102114.66;15704031;28;20106;-62
2022/05/08 13:13:54;;;;;;;1999.90;999.90;;;;;;;36.53;15.71;102109.78;15713625;28;20382;-61
2022/05/08 13:21:28;;;;;;;1999.90;999.90;;;;;;;33.49;16.42;102104.69;15700335;28;20637;-62
2022/05/08 13:29:01;;;;;;;1999.90;999.90;;;;;;;26.89;22.28;102094.22;15706432;28;20047;-61
2022/05/08 13:36:35;;;;;;;;;;;;;;;25.98;22.42;102075.84;15714511;28;20136;-61
2022/05/08 13:44:08;;;;;;;1999.90;999.90;;;;;;;24.98;22.92;102079.13;15731048;28;19952;-60
2022/05/08 13:51:42;;;;;;;1999.90;999.90;;;;;;;25.29;24.70;102069.09;15725606;28;20068;-60
2022/05/08 13:59:14;;;;;;;1999.90;999.90;;;;;;;25.13;21.55;102062.91;15737470;28;20135;-62
2022/05/08 14:06:49;;;;;;;;;;;;;;;24.52;22.52;102058.88;15737643;28;20059;-61
2022/05/08 14:14:25;;;;;;;1999.90;999.90;;;;;;;24.72;21.85;102056.56;15716120;28;19925;-61
2022/05/08 14:21:59;;;;;;;1999.90;999.90;;;;;;;23.92;24.19;102049.78;15718953;28;20041;-62
2022/05/08 14:29:31;;;;;;;1999.90;999.90;;;;;;;23.76;24.97;102042.31;15716555;28;20538;-61
2022/05/08 14:37:05;;;;;;;1999.90;999.90;;;;;;;23.52;24.00;102042.81;15717127;28;20061;-60
2022/05/08 14:44:37;;;;;;;1999.90;999.90;;;;;;;23.67;24.27;102046.69;15731286;28;20299;-60
2022/05/08 14:52:12;;;;;;;1999.90;999.90;;;;;;;23.90;24.73;102033.88;15735850;28;20067;-61
2022/05/08 14:59:44;;;;;;;1999.90;999.90;;;;;;;23.25;21.78;102047.81;15732393;28;20044;-61
2022/05/08 15:07:18;;;;;;;1999.90;999.90;;;;;;;23.12;21.04;102049.25;15728199;28;20086;-58
2022/05/08 15:14:50;;;;;;;1999.90;999.90;;;;;;;23.46;22.96;102039.53;15749268;28;20050;-59
2022/05/08 15:22:24;;;;;;;1999.90;999.90;;;;;;;23.28;21.92;102044.19;15750374;28;20469;-59
2022/05/08 15:29:56;;;;;;;1999.90;999.90;;;;;;;23.26;22.04;102047.44;15740738;28;20049;-62
2022/05/08 15:37:33;;;;;;;1999.90;999.90;;;;;;;23.13;22.04;102039.50;15743718;28;20040;-61
2022/05/08 15:45:06;;;;;;;1999.90;999.90;;;;;;;23.03;24.85;102041.00;15723059;28;20046;-59
2022/05/08 15:52:40;;;;;;;1999.90;999.90;;;;;;;23.02;24.39;102037.34;15721684;28;20532;-62
2022/05/08 16:00:13;;;;;;;1999.90;999.90;;;;;;;22.68;26.32;102044.97;15728816;28;20036;-64
2022/05/08 16:07:50;;;;;;;1999.90;999.90;;;;;;;22.64;25.83;102049.81;15728295;28;20132;-58
2022/05/08 16:23:17;;;;;;;1999.90;999.90;;;;;;;21.95;26.87;102045.41;15732862;28;20616;-59
2022/05/08 16:30:49;;;;;;;1999.90;999.90;;;;;;;21.95;26.33;102039.72;15728071;28;20090;-58
2022/05/08 16:38:23;;;;;;;1999.90;999.90;;;;;;;21.99;26.41;102038.59;15729158;28;20044;-61
2022/05/08 16:45:55;;;;;;;1999.90;999.90;;;;;;;21.50;24.11;102032.81;15734092;28;20325;-62
2022/05/08 16:53:29;;;;;;;1999.90;999.90;;;;;;;21.69;25.62;102034.81;15713805;28;20119;-57
2022/05/08 17:01:01;;;;;;;1999.90;999.90;;;;;;;21.63;25.32;102045.63;15714641;28;20056;-60
2022/05/08 17:08:35;;;;;;;1999.90;999.90;;;;;;;21.24;26.42;102054.16;15718995;28;20042;-61
2022/05/08 17:16:08;;;;;;;1999.90;999.90;;;;;;;21.24;26.36;102057.00;15743861;22;20411;-56
2022/05/08 17:23:42;;;;;;;1999.90;999.90;;;;;;;21.07;26.20;102051.78;15792923;28;20043;-57
2022/05/08 17:31:18;;;;;;;1999.90;999.90;;;;;;;21.12;26.44;102054.31;15706342;28;20041;-53
2022/05/08 17:38:52;;;;;;;1999.90;999.90;;;;;;;20.79;26.82;102054.00;15726710;28;20544;-59
2022/05/08 17:46:25;;;;;;;1999.90;999.90;;;;;;;20.61;27.85;102053.59;15705487;28;20088;-55
2022/05/08 17:53:58;;;;;;;1999.90;999.90;;;;;;;20.64;28.56;102061.38;15704477;28;20069;-53
2022/05/08 18:01:31;;;;;;;1999.90;999.90;;;;;;;20.37;28.45;102055.44;15697739;28;20101;-57
2022/05/08 18:09:06;;;;;;;1999.90;999.90;;;;;;;20.24;29.10;102073.75;15721782;28;20048;-58
2022/05/08 18:16:57;;;;;;;1999.90;999.90;;;;;;;19.87;29.26;102078.84;15703353;28;20041;-57
2022/05/08 18:24:32;;;;;;;1999.90;999.90;;;;;;;19.66;31.28;102079.09;15696981;28;20211;-54
2022/05/08 18:32:13;;;;;;;1999.90;999.90;;;;;;;19.33;32.26;102088.66;15717448;28;20041;-55
2022/05/08 18:39:49;;;;;;;1999.90;999.90;;;;;;;19.16;32.91;102105.09;15725083;28;20548;-52
2022/05/08 18:47:21;;;;;;;1999.90;999.90;;;;;;;18.75;33.83;102105.06;15733619;28;20099;-53
2022/05/08 18:55:02;;;;;;;1999.90;999.90;;;;;;;18.49;34.82;102117.91;15733764;28;20044;-54
2022/05/08 19:02:35;;;;;;;1999.90;999.90;;;;;;;18.21;33.76;102112.94;15733517;28;20101;-56
2022/05/08 19:10:09;;;;;;;1999.90;999.90;;;;;;;17.96;34.52;102120.56;15731951;28;20565;-56
2022/05/08 19:17:43;;;;;;;1999.90;999.90;;;;;;;17.75;35.15;102136.72;15730231;28;20509;-55
2022/05/08 19:25:17;;;;;;;1999.90;999.90;;;;;;;17.38;36.42;102147.81;15719830;28;20048;-55
2022/05/08 19:40:51;;;;;;;1999.90;999.90;;;;;;;16.98;36.02;102161.56;15732337;28;20041;-58
2022/05/08 19:48:27;;;;;;;1999.90;999.90;;;;;;;16.88;37.94;102168.44;15735516;28;20040;-58
2022/05/08 19:56:01;;;;;;;1999.90;999.90;;;;;;;16.73;38.38;102180.28;15730823;28;20041;-57
2022/05/08 20:03:34;;;;;;;1999.90;999.90;;;;;;;16.54;37.45;102179.84;15725968;28;20040;-56
2022/05/08 20:11:08;;;;;;;1999.90;999.90;;;;;;;16.36;39.12;102182.78;15729662;28;20131;-60
2022/05/08 20:18:41;;;;;;;1999.90;999.90;;;;;;;16.21;39.34;102196.56;15732798;28;20131;-61
2022/05/08 20:26:29;;;;;;;1999.90;999.90;;;;;;;15.99;39.37;102206.88;15723423;28;20226;-62
2022/05/08 20:34:03;;;;;;;1999.90;999.90;;;;;;;15.20;41.43;102215.63;15706752;28;20070;-57
2022/05/08 20:41:38;;;;;;;1999.90;999.90;;;;;;;15.20;41.86;102229.69;15738495;28;20098;-56
2022/05/08 20:49:11;;;;;;;1999.90;999.90;;;;;;;15.27;45.16;102242.09;15689176;28;20341;-60
2022/05/08 20:56:44;;;;;;;1999.90;999.90;;;;;;;15.23;47.24;102251.53;15675454;28;20071;-57
2022/05/08 21:04:17;;;;;;;1999.90;999.90;;;;;;;15.26;49.36;102260.13;15677542;28;20052;-54
2022/05/08 21:11:50;;;;;;;1999.90;999.90;;;;;;;15.20;50.38;102257.78;15699864;28;20394;-55
2022/05/08 21:19:24;;;;;;;1999.90;999.90;;;;;;;15.02;51.97;102263.38;15729970;28;20135;-58
2022/05/08 21:26:58;;;;;;;1999.90;999.90;;;;;;;14.86;51.81;102279.03;15718558;28;20036;-59
2022/05/08 21:34:30;;;;;;;;;;;;;;;14.99;51.43;102271.63;15709078;28;20320;-57
2022/05/08 21:42:04;;;;;;;1999.90;999.90;;;;;;;14.65;52.53;102281.56;15727047;28;20293;-59
2022/05/08 21:49:37;;;;;;;1999.90;999.90;;;;;;;14.52;51.88;102288.13;15733316;28;20139;-58
2022/05/08 21:57:11;;;;;;;1999.90;999.90;;;;;;;14.40;52.74;102288.69;15730770;28;20045;-59
2022/05/08 22:04:43;;;;;;;;;;;;;;;14.57;52.36;102292.75;15682640;28;20128;-56
2022/05/08 22:12:18;;;;;;;1999.90;999.90;;;;;;;14.48;52.07;102292.72;15735303;28;20597;-58
2022/05/08 22:19:50;;;;;;;1999.90;999.90;;;;;;;14.34;52.18;102297.56;15735333;28;20090;-55
2022/05/08 22:27:26;;;;;;;1999.90;999.90;;;;;;;14.24;52.76;102292.19;15735033;28;20167;-58
2022/05/08 22:34:58;;;;;;;;;;;;;;;14.16;53.41;102299.41;15737152;28;20071;-56
2022/05/08 22:42:34;;;;;;;1999.90;999.90;;;;;;;13.94;52.85;102305.00;15734749;28;19930;-55
2022/05/08 22:50:08;;;;;;;1999.90;999.90;;;;;;;13.89;53.24;102305.97;15735125;28;20048;-56
2022/05/08 22:57:41;;;;;;;1999.90;999.90;;;;;;;13.43;54.16;102309.00;15742083;28;20040;-58
2022/05/08 23:05:14;;;;;;;1999.90;999.90;;;;;;;13.15;54.34;102311.81;15748194;28;20442;-54
2022/05/08 23:12:55;;;;;;;1999.90;999.90;;;;;;;13.36;53.97;102311.41;15745753;28;20478;-54
2022/05/08 23:20:31;;;;;;;1999.90;999.90;;;;;;;13.45;53.96;102315.16;15713443;22;20041;-61
2022/05/08 23:28:04;;;;;;;1999.90;999.90;;;;;;;13.27;54.62;102322.53;15699208;28;20093;-60
2022/05/08 23:35:39;;;;;;;1999.90;999.90;;;;;;;13.13;54.70;102322.50;15635300;28;20052;-61
2022/05/08 23:43:13;;;;;;;1999.90;999.90;;;;;;;12.81;56.21;102330.97;15643384;28;20083;-59
2022/05/08 23:50:46;;;;;;;1999.90;999.90;;;;;;;12.55;56.93;102325.03;15638241;28;20060;-60
2022/05/08 23:58:18;;;;;;;1999.90;999.90;;;;;;;12.36;57.43;102319.47;15654397;28;20421;-61
